Time;durP1;ratioP1;P1;durP2;ratioP2;P2;SDS_P1;SDS_P2;PMS_P1;PMS_P2;Temp;Humidity;BMP_temperature;BMP_pressure;BME280_temperature;BME280_humidity;BME280_pressure;Samples;Min_cycle;Max_cycle;Signal;HPM_P1;HPM_P2
2024/04/06 00:02:01;;;;;;;327.03;127.37;;;;;14.80;97058.00;;;;4983844;28;20306;-85
2024/04/06 00:04:50;;;;;;;314.30;140.43;;;;;14.80;97064.00;;;;4988891;28;20202;-85
2024/04/06 00:07:37;;;;;;;303.83;133.80;;;;;14.80;97069.00;;;;4980481;28;20209;-84
2024/04/06 00:10:27;;;;;;;300.20;134.07;;;;;14.10;97058.00;;;;4982730;28;20227;-85
2024/04/06 00:13:14;;;;;;;314.27;131.40;;;;;14.20;97070.00;;;;4985539;28;20209;-85
2024/04/06 00:16:02;;;;;;;326.20;135.83;;;;;14.70;97067.00;;;;4983212;28;20210;-85
2024/04/06 00:18:49;;;;;;;323.60;129.67;;;;;14.30;97067.00;;;;4996701;28;20206;-85
2024/04/06 00:21:37;;;;;;;322.37;135.30;;;;;14.50;97066.00;;;;4981052;28;20236;-85
2024/04/06 00:24:25;;;;;;;315.47;130.27;;;;;14.20;97058.00;;;;4987837;28;20206;-84
2024/04/06 00:27:14;;;;;;;327.60;133.20;;;;;14.10;97062.00;;;;4984087;28;20206;-85
2024/04/06 00:30:02;;;;;;;322.50;130.87;;;;;13.90;97063.00;;;;4985327;28;20614;-84
2024/04/06 00:32:50;;;;;;;327.87;132.10;;;;;13.80;97077.00;;;;4986390;28;20621;-85
2024/04/06 00:35:38;;;;;;;330.63;137.73;;;;;13.80;97077.00;;;;4987158;28;20216;-85
2024/04/06 00:38:26;;;;;;;326.07;130.40;;;;;14.10;97075.00;;;;4985437;28;20206;-85
2024/04/06 00:41:13;;;;;;;327.60;125.50;;;;;14.30;97075.00;;;;4983463;28;20234;-85
2024/04/06 00:44:03;;;;;;;325.90;126.50;;;;;14.10;97083.00;;;;4982238;28;20202;-84
2024/04/06 00:46:52;;;;;;;324.17;124.10;;;;;13.80;97079.00;;;;4980646;28;20218;-85
2024/04/06 00:49:40;;;;;;;335.20;133.27;;;;;13.30;97073.00;;;;4984586;28;20267;-82
2024/04/06 00:52:27;;;;;;;329.30;127.43;;;;;13.90;97080.00;;;;4980281;28;20214;-81
2024/04/06 00:55:16;;;;;;;334.90;126.70;;;;;13.80;97079.00;;;;4977055;28;20227;-81
2024/04/06 00:58:04;;;;;;;314.70;121.90;;;;;13.80;97085.00;;;;4973863;28;20623;-82
2024/04/06 01:00:53;;;;;;;324.17;126.93;;;;;14.10;97091.00;;;;4979944;28;20309;-82
2024/04/06 01:03:41;;;;;;;327.73;130.07;;;;;13.70;97090.00;;;;4976461;28;20214;-82
2024/04/06 01:06:29;;;;;;;318.13;122.70;;;;;13.20;97084.00;;;;4981643;28;20251;-81
2024/04/06 01:09:18;;;;;;;315.07;123.80;;;;;12.80;97083.00;;;;4979836;28;20211;-82
2024/04/06 01:12:06;;;;;;;316.90;126.03;;;;;13.60;97089.00;;;;4980021;28;20229;-81
2024/04/06 01:14:54;;;;;;;330.03;122.70;;;;;13.90;97095.00;;;;4968910;28;20238;-82
2024/04/06 01:17:43;;;;;;;336.60;127.97;;;;;13.40;97085.00;;;;4979332;28;20210;-82
2024/04/06 01:20:34;;;;;;;323.10;124.00;;;;;13.50;97089.00;;;;4981895;28;20288;-82
2024/04/06 01:23:21;;;;;;;303.67;119.67;;;;;13.80;97094.00;;;;4980918;28;20214;-82
2024/04/06 01:26:10;;;;;;;313.37;127.77;;;;;13.90;97092.00;;;;4989528;28;20214;-81
2024/04/06 01:28:58;;;;;;;314.80;127.23;;;;;13.90;97104.00;;;;4997572;28;20213;-81
2024/04/06 01:31:46;;;;;;;325.03;125.77;;;;;13.50;97086.00;;;;4989435;28;20233;-81
2024/04/06 01:34:33;;;;;;;321.80;123.90;;;;;13.40;97083.00;;;;5002793;28;20225;-82
2024/04/06 01:37:21;;;;;;;322.87;123.00;;;;;13.80;97102.00;;;;4985449;28;20210;-81
2024/04/06 01:40:09;;;;;;;322.47;122.77;;;;;14.00;97106.00;;;;4979208;28;20598;-81
2024/04/06 01:42:58;;;;;;;315.17;131.00;;;;;13.90;97089.00;;;;4975606;28;20213;-82
2024/04/06 01:45:45;;;;;;;320.20;127.30;;;;;13.80;97102.00;;;;4985299;28;20210;-82
2024/04/06 01:48:34;;;;;;;305.17;125.57;;;;;14.00;97095.00;;;;4984475;28;20206;-82
2024/04/06 01:51:21;;;;;;;305.07;130.20;;;;;14.00;97092.00;;;;4982404;28;20226;-82
2024/04/06 01:54:09;;;;;;;294.60;124.67;;;;;14.00;97094.00;;;;4994578;28;20229;-82
2024/04/06 01:56:56;;;;;;;290.40;125.73;;;;;14.40;97091.00;;;;4975940;28;20205;-82
2024/04/06 01:59:46;;;;;;;306.00;135.10;;;;;14.40;97090.00;;;;4980495;28;20198;-82
2024/04/06 02:02:33;;;;;;;312.20;128.43;;;;;14.30;97097.00;;;;4979916;28;20198;-82
2024/04/06 02:05:21;;;;;;;320.50;129.07;;;;;14.40;97105.00;;;;4979038;28;20207;-82
2024/04/06 02:08:09;;;;;;;308.27;131.77;;;;;14.10;97095.00;;;;4976671;28;20215;-81
2024/04/06 02:10:57;;;;;;;305.43;130.80;;;;;13.10;97090.00;;;;4974277;28;20233;-81
2024/04/06 02:13:44;;;;;;;320.80;133.83;;;;;12.60;97092.00;;;;4978632;28;20214;-82
2024/04/06 02:16:33;;;;;;;303.27;128.40;;;;;12.80;97089.00;;;;4990975;28;20202;-81
2024/04/06 02:19:21;;;;;;;314.07;124.00;;;;;12.30;97079.00;;;;4986403;28;20221;-83
2024/04/06 02:22:09;;;;;;;325.53;127.33;;;;;12.50;97073.00;;;;4988670;28;20226;-84
2024/04/06 02:24:56;;;;;;;323.67;123.13;;;;;12.90;97075.00;;;;4986380;28;20229;-82
2024/04/06 02:27:44;;;;;;;324.10;121.27;;;;;13.10;97071.00;;;;4990077;28;20285;-83
2024/04/06 02:30:33;;;;;;;345.07;119.47;;;;;13.50;97083.00;;;;4986000;28;20234;-81
2024/04/06 02:33:21;;;;;;;348.97;120.50;;;;;13.60;97089.00;;;;4987299;28;20211;-83
2024/04/06 02:36:09;;;;;;;356.90;120.63;;;;;13.40;97088.00;;;;4990907;28;20221;-83
2024/04/06 02:38:57;;;;;;;349.07;117.30;;;;;13.90;97091.00;;;;4983962;28;20747;-83
2024/04/06 02:41:45;;;;;;;360.33;119.40;;;;;13.90;97091.00;;;;4987336;28;20226;-81
2024/04/06 02:44:32;;;;;;;358.30;116.77;;;;;14.10;97084.00;;;;4983089;28;20268;-81
2024/04/06 02:47:20;;;;;;;353.73;120.00;;;;;14.10;97078.00;;;;4992091;28;20202;-84
2024/04/06 02:50:10;;;;;;;320.33;119.80;;;;;13.80;97086.00;;;;4989012;28;20272;-83
2024/04/06 02:52:58;;;;;;;305.40;122.17;;;;;13.80;97100.00;;;;4987997;28;20206;-83
2024/04/06 02:55:45;;;;;;;303.67;128.07;;;;;13.40;97099.00;;;;4984031;28;20296;-81
2024/04/06 02:58:33;;;;;;;294.93;126.30;;;;;13.30;97106.00;;;;4985393;28;20222;-83
2024/04/06 03:01:21;;;;;;;287.60;125.50;;;;;13.40;97101.00;;;;4987880;28;20294;-82
2024/04/06 03:04:09;;;;;;;290.23;128.63;;;;;13.90;97106.00;;;;4985140;28;20211;-82
2024/04/06 03:06:57;;;;;;;284.53;128.43;;;;;13.80;97097.00;;;;4984460;28;20198;-81
2024/04/06 03:09:46;;;;;;;277.57;130.17;;;;;13.30;97107.00;;;;4985741;28;20209;-83
2024/04/06 03:12:34;;;;;;;260.97;125.03;;;;;12.60;97100.00;;;;4991568;28;20286;-84
2024/04/06 03:15:23;;;;;;;275.63;127.70;;;;;12.40;97102.00;;;;4990703;28;20705;-83
2024/04/06 03:18:12;;;;;;;278.30;126.30;;;;;12.60;97099.00;;;;4991814;28;20208;-83
2024/04/06 03:21:00;;;;;;;276.67;121.30;;;;;12.30;97088.00;;;;4984992;28;20231;-84
2024/04/06 03:23:49;;;;;;;292.37;126.67;;;;;12.10;97087.00;;;;4986394;28;20206;-83
2024/04/06 03:26:38;;;;;;;313.00;126.00;;;;;11.70;97089.00;;;;4985050;28;20232;-81
2024/04/06 03:29:25;;;;;;;317.33;115.93;;;;;11.90;97093.00;;;;4991113;28;20686;-83
2024/04/06 03:32:13;;;;;;;311.47;117.50;;;;;12.10;97087.00;;;;4984149;28;20810;-83
2024/04/06 03:35:01;;;;;;;308.83;113.43;;;;;12.40;97081.00;;;;4984942;28;20766;-81
2024/04/06 03:37:50;;;;;;;322.17;117.03;;;;;12.90;97083.00;;;;4986414;28;20214;-81
2024/04/06 03:40:39;;;;;;;320.77;121.17;;;;;12.70;97079.00;;;;4987056;28;20232;-83
2024/04/06 03:43:27;;;;;;;307.83;115.20;;;;;12.70;97085.00;;;;4989718;28;20714;-81
2024/04/06 03:46:15;;;;;;;301.60;114.03;;;;;12.70;97104.00;;;;4986782;28;20290;-83
2024/04/06 03:49:03;;;;;;;295.43;116.00;;;;;12.50;97080.00;;;;4976815;28;20306;-83
2024/04/06 03:51:50;;;;;;;304.23;122.70;;;;;13.00;97092.00;;;;4983629;28;20268;-83
2024/04/06 03:54:38;;;;;;;302.47;122.40;;;;;13.20;97088.00;;;;4981888;28;20218;-83
2024/04/06 03:57:27;;;;;;;306.87;115.70;;;;;13.40;97090.00;;;;4984159;28;20215;-83
2024/04/06 04:00:15;;;;;;;316.60;123.20;;;;;13.00;97083.00;;;;4979956;28;20235;-83
2024/04/06 04:03:03;;;;;;;316.83;117.07;;;;;12.70;97093.00;;;;4982020;28;20217;-82
2024/04/06 04:05:51;;;;;;;332.13;120.27;;;;;12.50;97089.00;;;;4981577;28;20664;-83
2024/04/06 04:08:38;;;;;;;327.97;123.97;;;;;12.10;97094.00;;;;4981622;28;20823;-83
2024/04/06 04:11:26;;;;;;;331.03;112.53;;;;;11.70;97086.00;;;;4988378;28;20221;-83
2024/04/06 04:14:16;;;;;;;325.67;111.10;;;;;12.20;97083.00;;;;4983971;28;20707;-83
2024/04/06 04:17:04;;;;;;;340.03;116.60;;;;;11.70;97090.00;;;;4982410;28;20203;-82
2024/04/06 04:19:51;;;;;;;330.43;116.60;;;;;11.40;97088.00;;;;4983762;28;20221;-83
2024/04/06 04:22:40;;;;;;;322.63;114.80;;;;;11.50;97089.00;;;;4985946;28;20202;-83
2024/04/06 04:25:27;;;;;;;293.70;111.97;;;;;11.80;97087.00;;;;4981924;28;20224;-82
2024/04/06 04:28:16;;;;;;;251.73;110.30;;;;;12.00;97097.00;;;;4984418;28;20216;-83
2024/04/06 04:31:16;;;;;;;227.73;109.90;;;;;11.70;97094.00;;;;4982872;28;20223;-83
2024/04/06 04:34:03;;;;;;;205.03;105.27;;;;;11.50;97091.00;;;;4984213;28;20229;-82
2024/04/06 04:36:52;;;;;;;212.30;111.40;;;;;11.10;97095.00;;;;4984703;28;20633;-83
2024/04/06 04:39:39;;;;;;;216.80;110.87;;;;;11.70;97113.00;;;;4979126;28;20214;-83
2024/04/06 04:42:27;;;;;;;199.87;101.53;;;;;12.20;97118.00;;;;4983701;28;20214;-82
2024/04/06 04:45:16;;;;;;;202.77;106.47;;;;;12.40;97117.00;;;;4984195;28;20260;-83
2024/04/06 04:48:06;;;;;;;207.83;107.70;;;;;12.40;97110.00;;;;4983568;28;20221;-82
2024/04/06 04:50:54;;;;;;;212.20;108.40;;;;;12.20;97116.00;;;;4986837;28;20658;-81
2024/04/06 04:53:41;;;;;;;198.67;107.43;;;;;12.30;97124.00;;;;4982407;28;20210;-82
2024/04/06 04:56:29;;;;;;;196.07;104.87;;;;;12.70;97132.00;;;;4985448;28;20203;-83
2024/04/06 04:59:16;;;;;;;207.43;108.40;;;;;12.60;97130.00;;;;4989484;28;20214;-83
2024/04/06 05:02:05;;;;;;;210.60;110.33;;;;;12.80;97139.00;;;;4990621;28;20233;-81
2024/04/06 05:04:53;;;;;;;228.70;118.43;;;;;13.00;97133.00;;;;4979776;28;20211;-83
2024/04/06 05:07:41;;;;;;;221.90;116.90;;;;;12.50;97144.00;;;;4984781;28;20206;-83
2024/04/06 05:10:28;;;;;;;208.60;112.33;;;;;12.80;97150.00;;;;4991214;28;20586;-83
2024/04/06 05:13:17;;;;;;;186.43;105.70;;;;;12.50;97150.00;;;;4986013;28;20648;-81
2024/04/06 05:16:04;;;;;;;186.80;105.57;;;;;12.80;97158.00;;;;4987249;28;20225;-82
2024/04/06 05:18:52;;;;;;;198.07;113.43;;;;;12.80;97162.00;;;;4985869;28;20703;-82
2024/04/06 05:21:41;;;;;;;203.40;116.17;;;;;13.00;97154.00;;;;4984979;28;20229;-83
2024/04/06 05:24:29;;;;;;;196.43;110.77;;;;;13.50;97160.00;;;;4987302;28;20198;-82
2024/04/06 05:27:16;;;;;;;193.00;109.37;;;;;13.40;97163.00;;;;4987646;28;20225;-82
2024/04/06 05:30:05;;;;;;;180.40;107.23;;;;;13.10;97158.00;;;;4983043;28;20202;-83
2024/04/06 05:32:52;;;;;;;184.93;111.77;;;;;12.50;97143.00;;;;4982700;28;20210;-84
2024/04/06 05:35:41;;;;;;;174.20;111.33;;;;;12.70;97159.00;;;;4987927;28;20866;-83
2024/04/06 05:38:31;;;;;;;169.17;106.30;;;;;12.90;97176.00;;;;4985391;28;20206;-82
2024/04/06 05:41:18;;;;;;;173.30;107.80;;;;;13.40;97163.00;;;;4992562;28;20252;-82
2024/04/06 05:44:06;;;;;;;173.63;111.63;;;;;13.40;97159.00;;;;4976712;28;20207;-82
2024/04/06 05:46:53;;;;;;;183.37;113.47;;;;;13.70;97159.00;;;;4983240;28;20199;-83
2024/04/06 05:49:41;;;;;;;184.53;113.77;;;;;14.20;97168.00;;;;4988764;28;20620;-83
2024/04/06 05:52:29;;;;;;;179.50;114.33;;;;;13.90;97148.00;;;;4984101;28;20226;-83
2024/04/06 05:55:18;;;;;;;180.60;116.20;;;;;13.90;97160.00;;;;4979946;28;20226;-81
2024/04/06 05:58:07;;;;;;;176.83;120.10;;;;;13.50;97152.00;;;;4980234;28;20207;-83
2024/04/06 06:00:54;;;;;;;181.90;120.07;;;;;13.80;97155.00;;;;4983733;28;20223;-83
2024/04/06 06:03:42;;;;;;;188.77;122.70;;;;;14.10;97157.00;;;;4985746;28;20664;-82
2024/04/06 06:06:29;;;;;;;188.33;117.60;;;;;14.50;97157.00;;;;4988337;28;20194;-82
2024/04/06 06:09:17;;;;;;;201.43;124.90;;;;;14.80;97165.00;;;;4989769;28;20276;-81
2024/04/06 06:12:07;;;;;;;193.57;123.47;;;;;15.10;97160.00;;;;4984731;28;20230;-82
2024/04/06 06:14:55;;;;;;;210.70;135.60;;;;;14.60;97154.00;;;;4983641;28;20222;-83
2024/04/06 06:17:42;;;;;;;205.33;128.83;;;;;15.00;97166.00;;;;4987591;28;20271;-84
2024/04/06 06:20:30;;;;;;;204.93;128.93;;;;;15.10;97153.00;;;;4992503;28;20221;-87
2024/04/06 06:23:17;;;;;;;209.97;129.37;;;;;15.40;97169.00;;;;4985684;28;20203;-85
2024/04/06 06:26:06;;;;;;;210.90;132.03;;;;;15.80;97159.00;;;;4981581;28;20224;-85
2024/04/06 06:28:54;;;;;;;226.00;137.90;;;;;16.00;97157.00;;;;4979097;28;20627;-85
2024/04/06 06:31:42;;;;;;;240.00;151.70;;;;;16.00;97154.00;;;;4979738;28;20802;-86
2024/04/06 06:34:30;;;;;;;243.80;150.40;;;;;16.20;97169.00;;;;4982821;28;20612;-85
2024/04/06 06:37:18;;;;;;;238.63;151.67;;;;;16.40;97164.00;;;;4981447;28;20211;-84
2024/04/06 06:40:06;;;;;;;238.80;151.57;;;;;16.30;97168.00;;;;4978251;28;20314;-85
2024/04/06 06:42:54;;;;;;;255.33;162.30;;;;;16.10;97150.00;;;;4985044;28;20224;-83
2024/04/06 06:45:43;;;;;;;258.10;168.80;;;;;16.40;97160.00;;;;4984115;28;20202;-83
2024/04/06 06:48:31;;;;;;;261.60;158.80;;;;;16.80;97163.00;;;;4984109;28;20210;-84
2024/04/06 06:51:19;;;;;;;291.27;180.63;;;;;17.00;97164.00;;;;4994372;23;20640;-71
2024/04/06 06:54:07;;;;;;;254.60;161.07;;;;;17.30;97163.00;;;;4975700;28;20213;-70
2024/04/06 06:56:56;;;;;;;273.70;169.50;;;;;17.50;97162.00;;;;4974821;28;20213;-71
2024/04/06 06:59:43;;;;;;;291.70;183.60;;;;;17.50;97172.00;;;;5032187;23;20639;-69
2024/04/06 07:02:33;;;;;;;282.63;179.77;;;;;17.80;97161.00;;;;5026528;28;20556;-70
2024/04/06 07:05:20;;;;;;;296.77;186.20;;;;;18.10;97165.00;;;;5030530;28;20219;-70
2024/04/06 07:08:08;;;;;;;291.93;187.00;;;;;18.40;97167.00;;;;5032209;28;20220;-70
2024/04/06 07:10:55;;;;;;;302.47;190.40;;;;;18.50;97154.00;;;;5046142;28;20658;-69
2024/04/06 07:13:43;;;;;;;316.37;197.73;;;;;18.60;97165.00;;;;5035322;28;20204;-70
2024/04/06 07:16:31;;;;;;;354.77;192.43;;;;;18.90;97156.00;;;;5038349;28;20228;-70
2024/04/06 07:19:21;;;;;;;370.07;207.97;;;;;19.00;97161.00;;;;5032582;28;20607;-70
2024/04/06 07:22:08;;;;;;;338.97;205.00;;;;;18.90;97156.00;;;;5030414;28;20740;-70
2024/04/06 07:24:56;;;;;;;369.20;206.97;;;;;19.20;97149.00;;;;5036614;28;20557;-67
2024/04/06 07:27:43;;;;;;;356.70;221.70;;;;;19.40;97154.00;;;;5033801;28;20213;-70
2024/04/06 07:30:33;;;;;;;353.93;225.63;;;;;19.30;97161.00;;;;5033244;28;20203;-69
2024/04/06 07:33:20;;;;;;;362.20;226.53;;;;;19.90;97177.00;;;;5034416;28;20208;-70
2024/04/06 07:36:10;;;;;;;364.73;226.07;;;;;20.20;97173.00;;;;5037976;28;20216;-70
2024/04/06 07:38:57;;;;;;;376.37;235.10;;;;;20.90;97180.00;;;;5030114;28;20605;-70
2024/04/06 07:41:45;;;;;;;387.23;243.60;;;;;21.30;97166.00;;;;5035102;28;20673;-70
2024/04/06 07:44:32;;;;;;;381.47;242.97;;;;;21.60;97175.00;;;;5033035;28;20581;-69
2024/04/06 07:47:21;;;;;;;385.00;251.43;;;;;21.60;97169.00;;;;5036624;28;20701;-69
2024/04/06 07:50:09;;;;;;;388.67;254.60;;;;;21.90;97172.00;;;;5034048;28;20683;-70
2024/04/06 07:52:58;;;;;;;390.17;263.63;;;;;22.10;97165.00;;;;5029979;28;20204;-69
2024/04/06 07:55:46;;;;;;;400.13;278.50;;;;;22.00;97164.00;;;;5036873;28;20624;-70
2024/04/06 07:58:33;;;;;;;395.50;276.87;;;;;22.00;97164.00;;;;5035251;28;20238;-69
2024/04/06 08:01:21;;;;;;;398.87;285.27;;;;;22.50;97169.00;;;;5031982;28;20209;-70
2024/04/06 08:04:09;;;;;;;392.70;279.33;;;;;22.60;97171.00;;;;5032975;28;20214;-70
2024/04/06 08:06:57;;;;;;;397.30;291.77;;;;;22.50;97176.00;;;;5041188;28;20200;-69
2024/04/06 08:09:46;;;;;;;402.40;302.23;;;;;22.80;97170.00;;;;5029881;28;20258;-70
2024/04/06 08:12:34;;;;;;;393.87;293.60;;;;;22.70;97159.00;;;;5031493;28;20189;-71
2024/04/06 08:15:21;;;;;;;403.00;296.70;;;;;23.00;97166.00;;;;5035913;28;20228;-70
2024/04/06 08:18:09;;;;;;;400.00;302.53;;;;;22.50;97154.00;;;;5032027;28;20227;-69
2024/04/06 08:20:57;;;;;;;403.73;307.63;;;;;22.50;97150.00;;;;5030640;28;20205;-71
2024/04/06 08:23:45;;;;;;;406.17;311.80;;;;;23.30;97160.00;;;;5029465;28;20278;-71
2024/04/06 08:26:33;;;;;;;404.90;314.90;;;;;23.50;97152.00;;;;5030087;28;20218;-71
2024/04/06 08:29:22;;;;;;;415.70;325.57;;;;;23.80;97166.00;;;;5034437;28;20234;-71
2024/04/06 08:32:09;;;;;;;415.47;329.40;;;;;23.90;97151.00;;;;5037848;28;20222;-71
2024/04/06 08:34:57;;;;;;;417.70;341.43;;;;;24.00;97151.00;;;;5034332;28;20207;-69
2024/04/06 08:37:44;;;;;;;424.27;345.43;;;;;24.40;97155.00;;;;5033030;28;20200;-70
2024/04/06 08:40:32;;;;;;;410.80;342.87;;;;;24.50;97157.00;;;;5033026;28;20215;-70
2024/04/06 08:43:23;;;;;;;414.33;350.60;;;;;24.80;97150.00;;;;5031279;28;20283;-70
2024/04/06 08:46:11;;;;;;;417.37;356.23;;;;;24.60;97152.00;;;;5030363;28;20201;-70
2024/04/06 08:48:58;;;;;;;420.03;366.33;;;;;24.50;97141.00;;;;5027950;28;20235;-70
2024/04/06 08:51:48;;;;;;;422.13;372.93;;;;;25.00;97138.00;;;;5030069;28;20211;-71
2024/04/06 08:54:36;;;;;;;415.70;369.00;;;;;25.30;97148.00;;;;5032286;28;20208;-71
2024/04/06 08:57:25;;;;;;;417.70;371.60;;;;;25.30;97139.00;;;;5045868;28;20624;-70
2024/04/06 09:00:15;;;;;;;429.70;382.90;;;;;25.30;97142.00;;;;5036632;28;20211;-70
2024/04/06 09:03:05;;;;;;;436.13;389.03;;;;;25.50;97148.00;;;;5032136;28;20253;-71
2024/04/06 09:05:53;;;;;;;451.40;403.00;;;;;25.70;97151.00;;;;5027181;28;20204;-70
2024/04/06 09:08:41;;;;;;;444.10;397.03;;;;;26.00;97145.00;;;;5027510;28;20225;-70
2024/04/06 09:11:28;;;;;;;447.30;399.97;;;;;26.00;97153.00;;;;5028732;28;20218;-70
2024/04/06 09:14:16;;;;;;;452.23;404.47;;;;;26.30;97141.00;;;;5028921;28;20217;-70
2024/04/06 09:17:06;;;;;;;458.10;409.90;;;;;26.10;97135.00;;;;5030375;28;20238;-70
2024/04/06 09:19:53;;;;;;;459.80;411.40;;;;;26.10;97131.00;;;;5035338;28;20239;-70
2024/04/06 09:22:43;;;;;;;463.40;415.47;;;;;26.40;97133.00;;;;5029586;28;20212;-70
2024/04/06 09:25:30;;;;;;;469.40;420.73;;;;;26.50;97129.00;;;;5042791;28;20598;-70
2024/04/06 09:28:18;;;;;;;465.40;418.03;;;;;26.80;97124.00;;;;5048287;28;20230;-70
2024/04/06 09:31:10;;;;;;;473.03;424.83;;;;;26.80;97120.00;;;;5027144;28;20219;-69
2024/04/06 09:34:01;;;;;;;483.53;434.30;;;;;27.20;97121.00;;;;5035395;28;20748;-71
2024/04/06 09:36:50;;;;;;;492.80;443.40;;;;;27.30;97121.00;;;;5027486;28;20265;-71
2024/04/06 09:39:39;;;;;;;482.17;433.70;;;;;27.40;97125.00;;;;5029837;28;20216;-71
2024/04/06 09:42:26;;;;;;;488.43;439.77;;;;;27.70;97125.00;;;;5032815;28;20299;-71
2024/04/06 09:45:15;;;;;;;494.53;445.87;;;;;27.80;97124.00;;;;5033337;28;20219;-70
2024/04/06 09:48:03;;;;;;;501.37;452.47;;;;;28.20;97125.00;;;;5034468;28;20241;-70
2024/04/06 09:50:52;;;;;;;510.87;460.73;;;;;28.50;97132.00;;;;5033787;28;20225;-71
2024/04/06 09:53:41;;;;;;;511.60;462.10;;;;;28.30;97127.00;;;;5031441;28;20210;-70
2024/04/06 09:56:30;;;;;;;514.10;464.87;;;;;28.40;97135.00;;;;5038258;28;20227;-70
2024/04/06 09:59:21;;;;;;;517.07;467.50;;;;;28.50;97133.00;;;;5037810;28;20717;-71
2024/04/06 10:02:10;;;;;;;525.83;475.73;;;;;28.70;97126.00;;;;5028272;28;20219;-71
2024/04/06 10:04:59;;;;;;;539.33;488.50;;;;;28.80;97132.00;;;;5035084;28;20216;-71
2024/04/06 10:07:50;;;;;;;540.77;489.93;;;;;29.40;97132.00;;;;5037421;28;20226;-70
2024/04/06 10:10:44;;;;;;;533.93;484.43;;;;;29.10;97128.00;;;;5030532;28;20875;-70
2024/04/06 10:13:36;;;;;;;538.37;488.30;;;;;29.50;97126.00;;;;5031576;28;20215;-71
2024/04/06 10:16:26;;;;;;;540.87;490.70;;;;;29.80;97114.00;;;;5032561;28;20290;-71
2024/04/06 10:19:13;;;;;;;549.77;499.83;;;;;30.20;97106.00;;;;5034864;28;20225;-70
2024/04/06 10:22:05;;;;;;;550.63;500.50;;;;;30.10;97105.00;;;;5033286;28;20206;-70
2024/04/06 10:25:00;;;;;;;558.10;507.23;;;;;30.70;97108.00;;;;5030824;28;20217;-71
2024/04/06 10:27:48;;;;;;;575.80;523.60;;;;;30.70;97102.00;;;;5033931;28;20217;-71
2024/04/06 10:30:37;;;;;;;567.43;516.80;;;;;30.70;97091.00;;;;5027528;28;20629;-71
2024/04/06 10:33:33;;;;;;;579.37;528.10;;;;;30.90;97079.00;;;;5031148;28;20207;-70
2024/04/06 10:36:22;;;;;;;572.17;521.13;;;;;31.20;97084.00;;;;5047328;28;20226;-70
2024/04/06 10:39:09;;;;;;;584.67;533.47;;;;;31.60;97076.00;;;;5033757;28;20235;-70
2024/04/06 10:41:58;;;;;;;601.50;549.20;;;;;29.50;97075.00;;;;5031927;28;20260;-69
2024/04/06 10:44:45;;;;;;;602.50;550.77;;;;;30.00;97074.00;;;;5031284;28;20748;-70
2024/04/06 10:47:34;;;;;;;593.50;542.73;;;;;30.90;97079.00;;;;5028041;28;20706;-70
2024/04/06 10:50:22;;;;;;;599.77;548.30;;;;;31.10;97074.00;;;;5050772;28;20241;-70
2024/04/06 10:53:09;;;;;;;606.83;555.23;;;;;31.10;97070.00;;;;5039324;28;20203;-70
2024/04/06 10:55:58;;;;;;;616.23;563.77;;;;;31.10;97073.00;;;;5032439;28;20241;-71
2024/04/06 10:58:47;;;;;;;630.97;578.23;;;;;31.70;97065.00;;;;5029742;28;20236;-71
2024/04/06 11:01:37;;;;;;;636.23;584.27;;;;;32.20;97074.00;;;;5033872;28;20212;-71
2024/04/06 11:04:24;;;;;;;;;;;;;32.30;97065.00;;;;5048249;28;20588;-71
2024/04/06 11:07:12;;;;;;;;;;;;;31.60;97062.00;;;;5038309;28;20387;-70
2024/04/06 11:09:58;;;;;;;;;;;;;32.30;97068.00;;;;5033366;28;19929;-71
2024/04/06 11:12:46;;;;;;;;;;;;;33.10;97061.00;;;;5037853;28;19927;-70
2024/04/06 11:15:35;;;;;;;;;;;;;32.60;97059.00;;;;5031614;28;19924;-70
2024/04/06 11:18:23;;;;;;;;;;;;;31.50;97048.00;;;;5035825;28;20560;-71
2024/04/06 11:21:10;;;;;;;694.30;640.95;;;;;33.20;97051.00;;;;5037080;28;20161;-72
2024/04/06 11:23:58;;;;;;;709.97;655.37;;;;;34.10;97048.00;;;;5034464;28;20256;-72
2024/04/06 11:26:46;;;;;;;722.13;667.23;;;;;34.50;97041.00;;;;5032203;28;20204;-71
2024/04/06 11:29:34;;;;;;;727.75;673.05;;;;;33.40;97043.00;;;;5031457;28;20742;-71
2024/04/06 11:32:24;;;;;;;725.87;671.10;;;;;32.10;97037.00;;;;5029581;28;20262;-71
2024/04/06 11:35:12;;;;;;;727.90;673.60;;;;;34.00;97037.00;;;;5035018;28;20251;-71
2024/04/06 11:37:59;;;;;;;743.67;688.13;;;;;34.00;97037.00;;;;5030083;28;20229;-71
2024/04/06 11:40:48;;;;;;;747.80;692.70;;;;;33.80;97033.00;;;;5034673;28;20217;-71
2024/04/06 11:43:36;;;;;;;742.95;688.58;;;;;34.20;97034.00;;;;5034080;28;20201;-71
2024/04/06 11:46:23;;;;;;;749.13;694.55;;;;;34.70;97026.00;;;;5046455;28;20197;-71
2024/04/06 11:49:13;;;;;;;760.42;705.70;;;;;34.60;97033.00;;;;5030843;28;20226;-71
2024/04/06 11:52:00;;;;;;;774.63;718.58;;;;;34.80;97022.00;;;;5035641;28;20228;-71
2024/04/06 11:54:49;;;;;;;773.67;717.95;;;;;35.40;97024.00;;;;5032476;28;20212;-71
2024/04/06 11:57:37;;;;;;;771.38;716.55;;;;;33.90;97012.00;;;;5029718;28;20232;-71
2024/04/06 12:00:25;;;;;;;782.33;726.83;;;;;34.70;97009.00;;;;5036640;28;20204;-72
2024/04/06 12:03:13;;;;;;;783.63;728.30;;;;;32.80;97001.00;;;;5034947;28;20628;-70
2024/04/06 12:06:03;;;;;;;786.10;729.97;;;;;34.20;97008.00;;;;5029272;28;20954;-71
2024/04/06 12:08:51;;;;;;;781.50;726.08;;;;;33.30;96992.00;;;;5033249;28;20786;-71
2024/04/06 12:11:40;;;;;;;776.35;721.65;;;;;32.80;96984.00;;;;5034035;28;20575;-71
2024/04/06 12:14:27;;;;;;;776.25;721.45;;;;;34.00;96984.00;;;;5036345;28;20212;-71
2024/04/06 12:17:22;;;;;;;775.50;719.85;;;;;32.10;96980.00;;;;5029704;28;20778;-68
2024/04/06 12:20:09;;;;;;;758.80;704.63;;;;;31.80;96973.00;;;;5039420;28;20213;-69
2024/04/06 12:22:59;;;;;;;760.85;705.70;;;;;33.40;96977.00;;;;5033494;28;20210;-70
2024/04/06 12:25:46;;;;;;;756.72;702.08;;;;;35.00;96976.00;;;;5032790;28;20208;-71
2024/04/06 12:28:35;;;;;;;766.13;711.42;;;;;35.80;96979.00;;;;5029377;28;20277;-71
2024/04/06 12:31:22;;;;;;;782.88;727.38;;;;;36.30;96975.00;;;;5032007;28;20692;-71
2024/04/06 12:34:10;;;;;;;792.90;737.55;;;;;36.10;96976.00;;;;5030402;28;20601;-72
2024/04/06 12:37:00;;;;;;;803.03;747.83;;;;;34.70;96962.00;;;;5031887;28;20229;-68
2024/04/06 12:39:49;;;;;;;807.58;751.88;;;;;34.70;96967.00;;;;5032095;28;20216;-71
2024/04/06 12:42:36;;;;;;;812.85;757.28;;;;;37.20;96957.00;;;;5026250;28;20580;-71
2024/04/06 12:45:25;;;;;;;817.45;761.95;;;;;37.40;96958.00;;;;5032147;28;20212;-71
2024/04/06 12:48:12;;;;;;;829.03;773.35;;;;;36.00;96968.00;;;;5044773;28;20229;-72
2024/04/06 12:51:01;;;;;;;842.22;785.67;;;;;34.30;96966.00;;;;5031357;28;20283;-70
2024/04/06 12:53:48;;;;;;;848.65;791.60;;;;;36.90;96956.00;;;;5025724;28;20208;-71
2024/04/06 12:57:36;;;;;;;848.38;791.97;;;;;35.90;96955.00;;;;5044920;28;20257;-71
2024/04/06 12:59:46;;;;;;;849.85;793.40;;;;;36.50;96962.00;;;;5034911;23;20647;-72
2024/04/06 13:02:35;;;;;;;849.53;793.50;;;;;37.80;96960.00;;;;4999437;28;20209;-69
2024/04/06 13:05:22;;;;;;;;;;;;;38.50;96958.00;;;;4987257;28;20060;-69
2024/04/06 13:08:10;;;;;;;;;;;;;38.40;96954.00;;;;4990444;28;19925;-69
2024/04/06 13:10:57;;;;;;;;;;;;;39.10;96953.00;;;;4988940;28;20052;-69
2024/04/06 13:13:46;;;;;;;;;;;;;38.40;96952.00;;;;5006487;28;19929;-69
2024/04/06 13:16:33;;;;;;;;;;;;;37.90;96952.00;;;;4992702;28;19983;-70
2024/04/06 13:19:21;;;;;;;;;;;;;38.40;96954.00;;;;4997810;28;19967;-69
2024/04/06 13:22:08;;;;;;;;;;;;;37.00;96955.00;;;;5003451;28;19933;-69
2024/04/06 13:24:56;;;;;;;;;;;;;33.60;96947.00;;;;4996507;28;19921;-70
2024/04/06 13:27:43;;;;;;;;;;;;;34.80;96939.00;;;;4995719;28;19925;-69